Sonic Adventure (DX): Overall Rankings

Records: Times | Rings | Scores | Races | Bosses | Freestyle
Leaders: Times | Rings | Scores | Races | Bosses | Freestyle | Overall
Rank Player Percent Points Date Grade
1 Sonicspeedruner 98.3% 285 01-21-17 S
2 Gamepro011 98.1% 305 01-21-17 A
3 DarkPolarNight 96.2% 637 01-21-17 A
4 Jawzun 93.5% 1094 01-21-17 A
5 Dashjump 92.1% 1327 01-21-17 A
6 DarkspinesSonic 90.2% 1643 01-21-17 A
7 Avento128bits 89.9% 1691 01-21-17 A
8 ike6252 89.8% 1708 01-21-17 A
9 F-Man 87.9% 2023 01-21-17 A
10 Coolfansonic 86.3% 2303 01-21-17 A
11 HyperSonic7701 84.7% 2573 01-21-17 A
12 yoshifan 82.9% 2880 01-21-17 A
13 TheRealShadnic 82.8% 2890 01-21-17 A
14 frankoredstrato 82.6% 2920 01-21-17 A
15 francisco 81.8% 3066 01-21-17 A
16 Marth 81.4% 3127 01-21-17 A
17 InferSaime 80.1% 3343 01-21-17 A
18 PfoSonic 79.7% 3417 01-21-17 B
19 Paragod 79.4% 3471 01-21-17 B
20 THC98 78.7% 3585 01-21-17 B
21 Stefan 76.0% 4032 01-21-17 B
22 RPGnutter 73.9% 4386 01-21-17 B
23 bertin 73.8% 4415 01-21-17 B
24 sonicam 71.7% 4766 01-21-17 B
25 drminus 70.5% 4968 01-21-17 B
26 xXMegaManXx 70.3% 4994 01-21-17 B
27 Combo 65.8% 5765 01-21-17 B
28 SkyLights 64.6% 5957 01-21-17 B
29 Diamond 62.5% 6319 01-21-17 B
30 Auriman1 60.6% 6641 01-21-17 B
31 OmegaDJ 60.5% 6654 01-21-17 B
32 GerbilSoft 60.5% 6657 01-21-17 B
33 magnum12 59.6% 6795 01-21-17 C
34 Thorn 57.5% 7152 01-21-17 C
35 P1 Pause 57.4% 7181 01-21-17 C
36 mike89 56.2% 7377 01-21-17 C
37 Groudon199 54.2% 7710 01-21-17 C
38 Dave Cramer 54.2% 7712 01-21-17 C
39 chainchumper 54.1% 7721 01-21-17 C
40 Parax 53.4% 7847 01-21-17 C
41 Shadow Jacky 53.2% 7879 01-21-17 C
42 Psymar 48.0% 8762 01-21-17 C
43 Arch 47.3% 8881 01-21-17 C
44 Chao_Fan 46.4% 9021 01-21-17 C
45 mauserman 45.4% 9192 01-21-17 C
46 Quartz 45.3% 9213 01-21-17 C
47 teamblackarms 44.5% 9342 01-21-17 C
48 James_Bertolli 43.4% 9540 01-21-17 C
49 Psyknux 43.4% 9541 01-21-17 C
50 NintenDan 43.0% 9595 01-21-17 C
51 Webber3000 42.6% 9672 01-21-17 C
52 Turbos 42.4% 9704 01-21-17 C
53 Cream147 42.0% 9772 01-21-17 C
54 Ring Rush 42.0% 9775 01-21-17 C
55 videogamemaster777 41.9% 9791 01-21-17 C
56 Siavash Tazari 41.6% 9828 01-21-17 C
57 Fr3nZy 41.5% 9849 01-21-17 C
58 buddychaos0415 41.2% 9902 01-21-17 C
59 SadisticMystic 40.3% 10052 01-21-17 C
60 eggFL 39.8% 10145 01-21-17 D
61 Redd 38.7% 10319 01-21-17 D
62 SB737 38.2% 10408 01-21-17 D
63 supersonic465 37.4% 10538 01-21-17 D
64 supersonicfan 37.1% 10595 01-21-17 D
65 FuzZerd 35.8% 10811 01-21-17 D
66 Aitamen 35.3% 10901 01-21-17 D
67 elecmouse101 35.0% 10942 01-21-17 D
68 danieldude 34.9% 10971 01-21-17 D
69 metanightmare22 33.8% 11152 01-21-17 D
70 Austinf 33.7% 11167 01-21-17 D
71 dabestgamer 33.4% 11217 01-21-17 D
72 Cyan Ryan 33.3% 11229 01-21-17 D
73 MiStEr_ShAoLiN 33.2% 11257 01-21-17 D
74 Andrea Ritsu 32.3% 11396 01-21-17 D
75 itsPersonnal 32.0% 11455 01-21-17 D
76 SilvertheAlmighty 31.1% 11599 01-21-17 D
77 Cybrax 31.1% 11602 01-21-17 D
78 VMU Player Banned 29.1% 11947 01-21-17 D
79 Staf 28.9% 11978 01-21-17 D
80 ethmar 28.8% 12000 01-21-17 D
81 Nimrod 28.8% 12001 01-21-17 D
82 The T 28.5% 12047 01-21-17 D
83 Omega Rafael Santos 28.4% 12054 01-21-17 D
84 EngiNerd 28.3% 12085 01-21-17 D
85 lordmetalsonic 27.7% 12182 01-21-17 D
86 Hipertails12 27.1% 12281 01-21-17 D
87 welldooder64 27.1% 12287 01-21-17 D
88 GreatStar 26.8% 12331 01-21-17 D
89 Sondow 26.7% 12342 01-21-17 D
89 The Great Lord Mick 26.7% 12342 01-21-17 D
91 LinksDarkArrows 26.5% 12377 01-21-17 D
92 Mastakirby 26.4% 12390 01-21-17 D
93 Skylace 25.5% 12556 01-21-17 D
94 a_moustache 24.4% 12731 01-21-17 D
95 Rolken 24.0% 12795 01-21-17 D
96 Kogen Player Banned 22.3% 13083 01-21-17 D
97 Spinballwizard 22.2% 13105 01-21-17 D
98 Xia 22.2% 13107 01-21-17 D
99 f0rever_zer0 21.8% 13176 01-21-17 D
99 Twilisailor 21.8% 13176 01-21-17 D
101 Cutiefox 21.6% 13208 01-21-17 D
102 Don 21.5% 13226 01-21-17 D
103 Game_Complete 21.4% 13236 01-21-17 D
104 Miles9999 21.3% 13251 01-21-17 D
105 andres430 21.0% 13315 01-21-17 D
106 Cruizer 20.7% 13365 01-21-17 D
107 iSonicKid2K 20.6% 13372 01-21-17 D
108 chaos shadow 20.6% 13379 01-21-17 D
109 SADXTryHard 20.3% 13435 01-21-17 D
110 GarnetPrincess 19.8% 13503 01-21-17 E
111 AxlThunder 19.1% 13621 01-21-17 E
112 knuckles_sonic8 18.8% 13679 01-21-17 E
113 KinkyCadence 18.3% 13757 01-21-17 E
114 The Knuckles Chao 18.3% 13758 01-21-17 E
115 Team_Yoshi 18.0% 13814 01-21-17 E
116 Termon 18.0% 13821 01-21-17 E
117 LittleBigness 17.9% 13830 01-21-17 E
118 SonicWinDX 17.8% 13856 01-21-17 E
119 FoxBoy 17.7% 13873 01-21-17 E
120 Drakodan 16.9% 13995 01-21-17 E
121 Sonic Singularity 15.9% 14163 01-21-17 E
122 Pokemonmaster888 15.8% 14191 01-21-17 E
123 BigAL49 14.8% 14349 01-21-17 E
124 MPit08 14.7% 14376 01-21-17 E
125 SilverSonic 14.6% 14388 01-21-17 E
126 WeegeeZV 14.3% 14431 01-21-17 E
127 koinu93 14.1% 14466 01-21-17 E
128 Mo Player Banned 14.1% 14470 01-21-17 E
129 HyperSonic64 13.8% 14525 01-21-17 E
130 Cod4Scopes 13.8% 14527 01-21-17 E
131 booo95 13.6% 14550 01-21-17 E
132 Jerzia 13.4% 14582 01-21-17 E
133 paulie9990 13.4% 14598 01-21-17 E
134 Chawkk 13.3% 14608 01-21-17 E
135 Hunters13 13.1% 14647 01-21-17 E
135 SuperSonic101 13.1% 14647 01-21-17 E
137 Maxinfamily 13.0% 14663 01-21-17 E
138 Kanimayo_Jp 12.7% 14710 01-21-17 E
139 LilZero 12.6% 14717 01-21-17 E
140 BrokenArthritis 12.6% 14732 01-21-17 E
141 PsyBorg 12.4% 14757 01-21-17 E
142 Flying Fox 12.4% 14766 01-21-17 E
143 Therio 12.1% 14807 01-21-17 E
144 sonicspeed 12.0% 14827 01-21-17 E
145 douglas 11.8% 14859 01-21-17 E
146 Matt_TY 11.4% 14920 01-21-17 E
147 thewaytodawnnn 11.4% 14927 01-21-17 E
148 Cooljay 10.9% 15003 01-21-17 E
149 SuperBlitzCraig 10.8% 15028 01-21-17 E
150 joecoolgames 10.7% 15037 01-21-17 E
151 SeaWolf 10.7% 15042 01-21-17 E
152 videogamer1014 10.5% 15080 01-21-17 E
153 AC-Tygo 10.3% 15119 01-21-17 E
154 welshmoose05 10.2% 15131 01-21-17 E
155 OddCook 10.0% 15166 01-21-17 E
156 TFEC Headshot 9.9% 15182 01-21-17 E
157 crazy1993 9.9% 15185 01-21-17 E
158 Mcshuggets 9.7% 15213 01-21-17 E
159 N 9.4% 15262 01-21-17 E
159 niscool 9.4% 15262 01-21-17 E
161 imazor017 9.4% 15272 01-21-17 E
162 Mariobutch 9.2% 15295 01-21-17 E
163 nuckrieg 9.2% 15298 01-21-17 E
163 SonicAD 9.2% 15298 01-21-17 E
165 SirTobbii 9.1% 15308 01-21-17 E
166 Shadowthegreat 9.1% 15319 01-21-17 E
167 superjupi 9.0% 15326 01-21-17 E
168 Powerjohn25 8.8% 15373 01-21-17 E
169 sonamyfan666 8.7% 15378 01-21-17 E
170 iarebored 8.7% 15390 01-21-17 E
171 SaviourDC 8.6% 15403 01-21-17 E
172 SonicKnuckles 8.6% 15406 01-21-17 E
173 Werey 8.3% 15455 01-21-17 E
174 adf 8.2% 15463 01-21-17 E
175 Megaman EXE565 8.0% 15496 01-21-17 E
176 ArcticDragon 7.6% 15567 01-21-17 E
177 Platformer 7.6% 15568 01-21-17 E
178 timpkmn89 7.5% 15590 01-21-17 E
179 FocusSight64 7.3% 15611 01-21-17 E
180 Swift Hobo 7.3% 15614 01-21-17 E
181 wheatrich 7.3% 15623 01-21-17 E
182 Rickyman48 7.2% 15643 01-21-17 E
183 KitsuneYamaro 7.0% 15663 01-21-17 E
184 Triseena 6.8% 15700 01-21-17 E
185 SonataSpinDash 6.7% 15724 01-21-17 E
186 CyberShadow 6.5% 15746 01-21-17 E
187 dShadow 6.5% 15750 01-21-17 E
188 Starlight Sable 6.5% 15751 01-21-17 E
189 slade23 6.5% 15755 01-21-17 E
190 Destroyer121121 6.4% 15763 01-21-17 E
191 IsisDazs 6.4% 15778 01-21-17 E
192 BlankTH 6.2% 15805 01-21-17 E
193 Monkeh 6.0% 15839 01-21-17 E
194 Badlex727 6.0% 15843 01-21-17 E
195 Richied 5.9% 15862 01-21-17 E
195 SonicU260 5.9% 15862 01-21-17 E
197 DaDude 5.7% 15880 01-21-17 E
198 Vicklaw 5.6% 15898 01-21-17 E
199 Zip 5.6% 15901 01-21-17 E
200 sonicd5 5.6% 15908 01-21-17 E
201 ALundstrom10 5.2% 15964 01-21-17 E
202 tal39h 5.2% 15973 01-21-17 E
203 VeritasDL 5.2% 15978 01-21-17 E
204 Kirbymon30 5.1% 15992 01-21-17 E
205 soniccoloursunleashed 5.0% 16013 01-21-17 E
206 Drflash55 4.9% 16016 01-21-17 E
207 Bass 4.8% 16034 01-21-17 E
208 neaolas 4.7% 16048 01-21-17 E
209 Yish 4.7% 16056 01-21-17 E
210 zapp 4.7% 16063 01-21-17 E
211 UninspiredUsername 4.6% 16072 01-21-17 E
212 superiorsonic 4.6% 16075 01-21-17 E
213 Sonicsuperstar1 4.6% 16079 01-21-17 E
214 gamefreak1292 4.5% 16090 01-21-17 E
215 Chaos_Overlord 4.2% 16138 01-21-17 E
216 TakaRikka 4.1% 16162 01-21-17 E
217 Valfore 4.0% 16172 01-21-17 E
218 ShinigamiMachine 3.8% 16201 01-21-17 E
219 Regano1000 3.8% 16211 01-21-17 E
220 MK 3.6% 16236 01-21-17 E
221 Ace747 3.6% 16243 01-21-17 E
222 HHNNBBHHN 3.2% 16312 01-21-17 E
223 Illidan 3.2% 16314 01-21-17 E
224 Brian_pso 3.1% 16322 01-21-17 E
225 Sithwarrior26 3.1% 16323 01-21-17 E
226 nman36 3.1% 16324 01-21-17 E
226 Venick409 3.1% 16324 01-21-17 E
228 Egor305 3.0% 16348 01-21-17 E
229 ingx24 3.0% 16351 01-21-17 E
230 TheChaosEmeraIds 2.9% 16353 01-21-17 E
231 SkyBon 2.9% 16357 01-21-17 E
232 Nickson98 2.9% 16360 01-21-17 E
233 dekki1234 2.9% 16367 01-21-17 E
234 Fozer 2.8% 16371 01-21-17 E
235 Colomb_30 2.8% 16381 01-21-17 E
236 FSSRandomvids 2.8% 16382 01-21-17 E
237 Aiko 2.7% 16395 01-21-17 E
238 sonic29887 2.7% 16401 01-21-17 E
239 TheUltraBlur 2.6% 16403 01-21-17 E
240 1stKirbyever 2.6% 16409 01-21-17 E
241 TimTH 2.6% 16417 01-21-17 E
242 Th4tN1nj4Turtl3 2.4% 16446 01-21-17 E
243 Cort_pso 2.3% 16457 01-21-17 E
244 ieatatsonic 2.3% 16461 01-21-17 E
245 Doom-9 2.3% 16463 01-21-17 E
245 Mariosonic15 2.3% 16463 01-21-17 E
247 HermitHelmet 2.1% 16487 01-21-17 E
247 MStitomix 2.1% 16487 01-21-17 E
249 Got4n 2.1% 16502 01-21-17 E
250 Artie 2.0% 16504 01-21-17 E
251 SuperSonic71087 2.0% 16511 01-21-17 E
252 Jose_15 2.0% 16516 01-21-17 E
253 Questionguy555 1.9% 16521 01-21-17 E
254 SuperSonicfan9595 1.9% 16534 01-21-17 E
255 djmat 1.8% 16538 01-21-17 E
256 sonicandamy Player Banned 1.7% 16557 01-21-17 E
257 LancexExWx 1.7% 16566 01-21-17 E
257 Paixii 1.7% 16566 01-21-17 E
259 Heroes_Hater 1.7% 16569 01-21-17 E
260 son1cgu1tar 1.7% 16570 01-21-17 E
261 BallzeH 1.6% 16580 01-21-17 E
262 Mankster101 1.6% 16587 01-21-17 E
263 BecauseWarAnvil 1.5% 16588 01-21-17 E
264 Jamixesa 1.5% 16593 01-21-17 E
265 Crydio 1.5% 16601 01-21-17 E
266 Shanekilz 1.4% 16607 01-21-17 E
267 SpiritDragon1995 1.4% 16608 01-21-17 E
268 ReuelBrony 1.4% 16614 01-21-17 E
269 MarewBFN 1.4% 16619 01-21-17 E
270 stanski 1.3% 16622 01-21-17 E
271 Sonique Hedgehog 1.3% 16629 01-21-17 E
272 p0ker 1.3% 16634 01-21-17 E
273 Blue Infamy 1.2% 16639 01-21-17 E
274 ErrortheCucco 1.2% 16650 01-21-17 E
275 Rikum22 1.2% 16653 01-21-17 E
276 Arthas 1.1% 16655 01-21-17 E
277 sonic1001 1.1% 16661 01-21-17 E
278 AJSIV 1.1% 16666 01-21-17 E
279 syco1098 1.1% 16668 01-21-17 E
280 WingedInsignia 1.1% 16669 01-21-17 E
281 Sonic the Hedgehod16 1.1% 16671 01-21-17 E
282 sonicfan9 1.0% 16679 01-21-17 E
283 Calfd 1.0% 16680 01-21-17 E
284 BlackArmsShadow 0.9% 16690 01-21-17 E
285 themachoman202 0.9% 16692 01-21-17 E
286 shadowblast63 Player Banned 0.9% 16699 01-21-17 E
287 darkstarblaze 0.9% 16701 01-21-17 E
288 Fivavoa 0.9% 16702 01-21-17 E
288 Greham Adelphis 0.9% 16702 01-21-17 E
288 Mr. Jones 0.9% 16702 01-21-17 E
291 MastaToken 0.9% 16704 01-21-17 E
292 arcfx1985 0.9% 16705 01-21-17 E
293 Ben1502 0.8% 16707 01-21-17 E
294 ptorflaxendrosis 0.8% 16708 01-21-17 E
294 TommyeAsY 0.8% 16708 01-21-17 E
296 FlandreScarlet9999vr 0.8% 16713 01-21-17 E
297 Gvozdevik 0.8% 16714 01-21-17 E
298 Zeldocto 0.8% 16715 01-21-17 E
299 Knuckles 0.8% 16716 01-21-17 E
300 BeeAwwb 0.8% 16720 01-21-17 E
300 KaM Mark MaK 0.8% 16720 01-21-17 E
302 ShadouZaHejjihoggu 0.7% 16727 01-21-17 E
303 Sonic The Star 0.7% 16734 01-21-17 E
304 darkersupershadic 0.7% 16735 01-21-17 E
305 Sonic62 0.7% 16736 01-21-17 E
306 Sarger001 0.7% 16738 01-21-17 E
307 dragondragon18 0.6% 16741 01-21-17 E
307 Grady219 0.6% 16741 01-21-17 E
307 SonicK100 0.6% 16741 01-21-17 E
310 Shadygamerfreak 0.6% 16743 01-21-17 E
310 Sogeking 0.6% 16743 01-21-17 E
312 Jawaah 0.6% 16748 01-21-17 E
313 Antek 0.6% 16751 01-21-17 E
314 Klaus 0.6% 16753 01-21-17 E
315 SilverK 0.6% 16754 01-21-17 E
316 BioShadow 0.5% 16757 01-21-17 E
317 SpinDashMaster 0.5% 16761 01-21-17 E
318 Videogamer123 0.5% 16765 01-21-17 E
319 oTaiIilLsS 0.4% 16778 01-21-17 E
320 isaihtb11 0.4% 16779 01-21-17 E
321 OhNoes! 0.4% 16781 01-21-17 E
321 zaktu40 0.4% 16781 01-21-17 E
323 gaara1234 0.4% 16784 01-21-17 E
324 Mad Andy 0.4% 16785 01-21-17 E
324 S-MS32X-S 0.4% 16785 01-21-17 E
326 gamed00d 0.4% 16788 01-21-17 E
327 Mister_Slick 0.3% 16796 01-21-17 E
328 Sonic06Fan 0.3% 16799 01-21-17 E
329 Rush Hero 0.3% 16800 01-21-17 E
330 SonicMega167 0.3% 16805 01-21-17 E
331 Iwannabelink 0.2% 16808 01-21-17 E
332 sonknuck23 0.2% 16811 01-21-17 E
333 DanielTheFalcon 0.2% 16819 01-21-17 E
333 gamer1245 0.2% 16819 01-21-17 E
335 Burningskull123 0.1% 16825 01-21-17 E
336 Sonicontherun 0.1% 16836 01-21-17 E
337 Lil_Dude 0.1% 16840 01-21-17 E
338 antiwwe 0.0% 16842 01-21-17 E
339 Genuine Hedgehog 0.0% 16846 01-21-17 E
340 Cbwade15 0.0% 16847 01-21-17 E
341 Tyrouble 0.0% 16850 01-21-17 E
342 MegabombBlade 0.0% 16857 01-21-17 E
342 neji_hyuuga 0.0% 16857 01-21-17 E
342 Over 0.0% 16857 01-21-17 E
342 sdj6707 Player Banned 0.0% 16857 01-21-17 E
342 Tran Sonic Fan Player Banned 0.0% 16857 01-21-17 E

This page is using the New Data Table System. [FUTURE]


-- Back to Normal Skin --
Game ID: 3 | Category ID: 10
Hits: 68,398 | Hits This Month: 156 | DB Calls: 16 | Mem Usage: 5.46 MB | Time: 0.14s | Printable

The Sonic Center v3.9
Copyright 2003-2011 by The Sonic Center Team.